createdAt,value
2022-11-28T00:01:19.440Z,101502.47
2022-11-28T00:03:46.843Z,101498.03
2022-11-28T00:06:14.342Z,101494.63
2022-11-28T00:08:42.145Z,101499.94
2022-11-28T00:11:10.396Z,101506.25
2022-11-28T00:13:37.846Z,101482.41
2022-11-28T00:16:07.955Z,101479.97
2022-11-28T00:18:36.707Z,101484.56
2022-11-28T00:21:04.764Z,101476.66
2022-11-28T00:23:33.087Z,101475.81
2022-11-28T00:26:00.594Z,101472.28
2022-11-28T00:28:28.042Z,101473.16
2022-11-28T00:30:55.480Z,101462.53
2022-11-28T00:33:22.900Z,101465.19
2022-11-28T00:35:51.611Z,101462.53
2022-11-28T00:38:19.017Z,101453.56
2022-11-28T00:40:46.431Z,101450.16
2022-11-28T00:43:13.865Z,101446.78
2022-11-28T00:45:41.289Z,101453.56
2022-11-28T00:48:08.736Z,101449.34
2022-11-28T00:50:36.170Z,101451.38
2022-11-28T00:53:04.882Z,101453.16
2022-11-28T00:55:32.288Z,101453.31
2022-11-28T00:57:59.690Z,101457.66
2022-11-28T01:00:27.099Z,101452.09
2022-11-28T01:02:54.528Z,101452.84
2022-11-28T01:05:21.981Z,101455.72
2022-11-28T01:07:49.471Z,101454.03
2022-11-28T01:10:18.364Z,101453.16
2022-11-28T01:12:45.802Z,101441.56
2022-11-28T01:15:13.449Z,101430.81
2022-11-28T01:17:41.104Z,101434.84
2022-11-28T01:20:09.655Z,101428.88
2022-11-28T01:22:37.063Z,101425.28
2022-11-28T01:25:04.790Z,101425.81
2022-11-28T01:27:33.499Z,101420.78
2022-11-28T01:30:01.037Z,101416.00
2022-11-28T01:32:28.493Z,101411.41
2022-11-28T01:34:55.908Z,101406.47
2022-11-28T01:37:23.328Z,101415.88
2022-11-28T01:39:50.764Z,101405.97
2022-11-28T01:42:18.622Z,101413.50
2022-11-28T01:45:13.091Z,101401.13
2022-11-28T01:47:40.495Z,101398.00
2022-11-28T01:50:08.811Z,101394.38
2022-11-28T01:52:37.317Z,101397.03
2022-11-28T01:55:05.102Z,101388.31
2022-11-28T01:57:32.506Z,101386.50
2022-11-28T02:00:02.849Z,101388.31
2022-11-28T02:02:42.014Z,101389.75
2022-11-28T02:05:09.716Z,101386.38
2022-11-28T02:07:37.178Z,101380.81
2022-11-28T02:10:06.212Z,101377.22
2022-11-28T02:12:39.165Z,101377.44
2022-11-28T02:15:14.004Z,101376.13
2022-11-28T02:17:48.632Z,101369.22
2022-11-28T02:20:51.756Z,101365.69
2022-11-28T02:23:19.809Z,101370.19
2022-11-28T02:26:09.527Z,101367.75
2022-11-28T02:28:47.146Z,101355.31
2022-11-28T02:31:23.172Z,101352.38
2022-11-28T02:33:52.561Z,101347.19
2022-11-28T02:36:20.718Z,101348.91
2022-11-28T02:38:57.502Z,101348.28
2022-11-28T02:41:31.288Z,101351.06
2022-11-28T02:44:04.372Z,101341.25
2022-11-28T02:46:34.843Z,101343.56
2022-11-28T02:49:05.326Z,101340.31
2022-11-28T02:51:34.310Z,101343.19
2022-11-28T02:54:01.904Z,101343.09
2022-11-28T02:56:29.352Z,101341.25
2022-11-28T02:58:56.764Z,101343.19
2022-11-28T03:01:26.671Z,101334.25
2022-11-28T03:04:10.546Z,101332.56
2022-11-28T03:06:44.252Z,101321.91
2022-11-28T03:09:40.516Z,101311.28
2022-11-28T03:12:15.720Z,101319.47
2022-11-28T03:14:50.164Z,101322.16
2022-11-28T03:17:20.835Z,101311.50
2022-11-28T03:19:51.856Z,101306.06
2022-11-28T03:22:23.650Z,101313.44
2022-11-28T03:24:52.460Z,101302.78
2022-11-28T03:27:22.177Z,101305.56
2022-11-28T03:29:50.442Z,101297.47
2022-11-28T03:32:20.338Z,101305.34
2022-11-28T03:34:50.790Z,101305.47
2022-11-28T03:37:20.034Z,101298.09
2022-11-28T03:39:49.859Z,101300.97
2022-11-28T03:42:18.072Z,101304.50
2022-11-28T03:44:47.395Z,101296.41
2022-11-28T03:47:14.794Z,101296.53
2022-11-28T03:49:43.386Z,101292.75
2022-11-28T03:52:14.681Z,101293.88
2022-11-28T03:54:44.830Z,101288.41
2022-11-28T03:57:13.673Z,101286.72
2022-11-28T03:59:42.501Z,101286.72
2022-11-28T04:02:14.955Z,101290.22
2022-11-28T04:04:44.792Z,101293.75
2022-11-28T04:07:16.208Z,101286.59
2022-11-28T04:09:46.100Z,101285.75
2022-11-28T04:12:18.252Z,101281.41
2022-11-28T04:14:47.023Z,101279.44
2022-11-28T04:17:16.868Z,101277.91
2022-11-28T04:19:45.727Z,101279.56
2022-11-28T04:22:16.300Z,101278.63
2022-11-28T04:24:45.538Z,101269.78
2022-11-28T04:27:14.899Z,101270.63
2022-11-28T04:29:43.886Z,101273.41
2022-11-28T04:32:11.313Z,101268.81
2022-11-28T04:34:38.721Z,101265.31
2022-11-28T04:37:09.793Z,101262.88
2022-11-28T04:39:38.768Z,101277.66
2022-11-28T04:42:07.350Z,101269.78
2022-11-28T04:44:37.719Z,101269.03
2022-11-28T04:47:05.300Z,101260.81
2022-11-28T04:49:32.714Z,101263.59
2022-11-28T04:52:02.142Z,101256.59
2022-11-28T04:54:32.302Z,101259.16
2022-11-28T04:57:02.404Z,101263.59
2022-11-28T04:59:29.801Z,101258.28
2022-11-28T05:01:58.293Z,101260.81
2022-11-28T05:04:25.803Z,101251.28
2022-11-28T05:07:01.949Z,101259.16
2022-11-28T05:09:29.351Z,101256.50
2022-11-28T05:11:56.749Z,101253.84
2022-11-28T05:14:25.503Z,101262.78
2022-11-28T05:16:53.041Z,101255.91
2022-11-28T05:19:20.533Z,101259.28
2022-11-28T05:21:47.949Z,101258.41
2022-11-28T05:24:15.363Z,101260.09
2022-11-28T05:26:43.261Z,101254.91
2022-11-28T05:29:10.705Z,101254.91
2022-11-28T05:31:39.541Z,101254.06
2022-11-28T05:34:06.971Z,101251.41
2022-11-28T05:36:34.378Z,101262.16
2022-11-28T05:39:01.796Z,101251.41
2022-11-28T05:41:29.948Z,101250.69
2022-11-28T05:43:57.454Z,101241.72
2022-11-28T05:46:25.028Z,101242.72
2022-11-28T05:48:53.972Z,101241.72
2022-11-28T05:51:21.387Z,101242.59
2022-11-28T05:53:48.795Z,101241.59
2022-11-28T05:56:17.214Z,101239.06
2022-11-28T05:58:44.609Z,101228.41
2022-11-28T06:01:13.086Z,101231.94
2022-11-28T06:03:40.527Z,101227.47
2022-11-28T06:06:12.508Z,101230.84
2022-11-28T06:08:39.927Z,101219.25
2022-11-28T06:11:07.537Z,101221.16
2022-11-28T06:13:34.941Z,101216.09
2022-11-28T06:16:03.543Z,101216.09
2022-11-28T06:18:30.997Z,101206.66
2022-11-28T06:21:01.884Z,101199.38
2022-11-28T06:23:30.614Z,101200.50
2022-11-28T06:25:58.096Z,101194.44
2022-11-28T06:28:25.500Z,101194.34
2022-11-28T06:30:52.909Z,101196.00
2022-11-28T06:33:20.348Z,101198.56
2022-11-28T06:35:47.821Z,101191.03
2022-11-28T06:38:15.216Z,101186.44
2022-11-28T06:40:43.914Z,101189.56
2022-11-28T06:43:11.332Z,101194.78
2022-11-28T06:45:38.757Z,101193.78
2022-11-28T06:48:06.653Z,101184.97
2022-11-28T06:50:34.072Z,101187.63
2022-11-28T06:53:01.473Z,101189.81
2022-11-28T06:55:30.259Z,101191.75
2022-11-28T06:57:58.945Z,101194.28
2022-11-28T07:00:26.449Z,101196.84
2022-11-28T07:02:53.884Z,101197.66
2022-11-28T07:05:22.841Z,101197.56
2022-11-28T07:07:54.536Z,101194.06
2022-11-28T07:10:22.227Z,101193.31
2022-11-28T07:12:54.200Z,101197.66
2022-11-28T07:15:23.097Z,101195.13
2022-11-28T07:17:50.522Z,101199.13
2022-11-28T07:20:18.111Z,101191.53
2022-11-28T07:22:46.845Z,101190.22
2022-11-28T07:25:16.528Z,101191.88
2022-11-28T07:27:44.012Z,101189.22
2022-11-28T07:30:11.785Z,101201.69
2022-11-28T07:32:41.397Z,101194.53
2022-11-28T07:35:09.282Z,101192.63
2022-11-28T07:37:36.691Z,101195.25
2022-11-28T07:40:04.237Z,101189.44
2022-11-28T07:42:31.901Z,101188.47
2022-11-28T07:45:04.544Z,101181.59
2022-11-28T07:47:31.976Z,101182.41
2022-11-28T07:50:00.742Z,101176.25
2022-11-28T07:52:28.156Z,101185.19
2022-11-28T07:54:55.580Z,101196.19
2022-11-28T07:57:23.005Z,101195.47
2022-11-28T07:59:50.432Z,101190.41
2022-11-28T08:02:18.731Z,101187.03
2022-11-28T08:04:50.631Z,101187.75
2022-11-28T08:07:21.522Z,101176.97
2022-11-28T08:09:49.024Z,101185.66
2022-11-28T08:12:16.454Z,101190.28
2022-11-28T08:14:44.445Z,101179.50
2022-11-28T08:17:12.235Z,101175.16
2022-11-28T08:19:39.685Z,101171.66
2022-11-28T08:22:07.098Z,101168.03
2022-11-28T08:24:35.846Z,101168.75
2022-11-28T08:27:03.260Z,101168.03
2022-11-28T08:29:30.814Z,101160.66
2022-11-28T08:31:58.223Z,101157.66
2022-11-28T08:34:25.635Z,101160.91
2022-11-28T08:36:53.050Z,101145.88
2022-11-28T08:39:24.900Z,101150.22
2022-11-28T08:41:54.191Z,101150.00
2022-11-28T08:44:21.642Z,101150.94
2022-11-28T08:46:49.062Z,101156.28
2022-11-28T08:49:16.760Z,101162.59
2022-11-28T08:51:44.180Z,101157.97
2022-11-28T08:54:11.583Z,101159.41
2022-11-28T08:56:38.986Z,101162.31
2022-11-28T08:59:07.834Z,101164.72
2022-11-28T09:01:35.309Z,101163.06
2022-11-28T09:04:05.096Z,101160.97
2022-11-28T09:06:32.532Z,101153.13
2022-11-28T09:08:59.948Z,101153.50
2022-11-28T09:11:27.374Z,101161.34
2022-11-28T09:13:55.648Z,101165.97
2022-11-28T09:16:24.407Z,101155.31
2022-11-28T09:18:52.345Z,101164.97
2022-11-28T09:21:19.828Z,101161.34
2022-11-28T09:23:47.424Z,101158.69
2022-11-28T09:26:15.893Z,101162.47
2022-11-28T09:28:43.349Z,101156.84
2022-11-28T09:31:11.251Z,101162.06
2022-11-28T09:33:40.052Z,101156.03
2022-11-28T09:36:08.353Z,101160.63
2022-11-28T09:38:35.799Z,101157.44
2022-11-28T09:41:03.394Z,101156.03
2022-11-28T09:43:32.039Z,101154.06
2022-11-28T09:45:59.835Z,101153.94
2022-11-28T09:48:30.144Z,101150.22
2022-11-28T09:51:04.696Z,101146.69
2022-11-28T09:53:36.061Z,101147.41
2022-11-28T09:56:06.214Z,101147.78
2022-11-28T09:58:36.565Z,101134.94
2022-11-28T10:01:11.309Z,101138.56
2022-11-28T10:03:41.553Z,101127.31
2022-11-28T10:06:16.021Z,101135.56
2022-11-28T10:08:57.593Z,101136.13
2022-11-28T10:11:31.686Z,101129.38
2022-11-28T10:14:09.204Z,101140.66
2022-11-28T10:16:43.161Z,101133.38
2022-11-28T10:19:20.641Z,101129.16
2022-11-28T10:22:01.365Z,101131.81
2022-11-28T10:24:31.814Z,101121.31
2022-11-28T10:26:59.990Z,101132.66
2022-11-28T10:29:29.804Z,101122.84
2022-11-28T10:31:59.178Z,101121.19
2022-11-28T10:34:29.286Z,101119.47
2022-11-28T10:36:58.701Z,101111.13
2022-11-28T10:39:27.417Z,101112.94
2022-11-28T10:42:21.000Z,101116.81
2022-11-28T10:45:08.315Z,101102.53
2022-11-28T10:47:44.808Z,101107.28
2022-11-28T10:50:15.122Z,101105.63
2022-11-28T10:52:44.936Z,101099.69
2022-11-28T10:55:23.441Z,101091.72
2022-11-28T10:57:55.499Z,101090.03
2022-11-28T11:00:22.909Z,101092.69
2022-11-28T11:02:50.854Z,101091.34
2022-11-28T11:05:19.320Z,101096.78
2022-11-28T11:07:49.111Z,101099.56
2022-11-28T11:10:17.635Z,101097.03
2022-11-28T11:12:46.623Z,101100.56
2022-11-28T11:15:22.520Z,101105.75
2022-11-28T11:17:50.781Z,101101.94
2022-11-28T11:20:35.625Z,101103.38
2022-11-28T11:23:06.240Z,101097.69
2022-11-28T11:25:33.651Z,101079.03
2022-11-28T11:28:03.221Z,101078.50
2022-11-28T11:30:31.482Z,101073.06
2022-11-28T11:33:00.129Z,101071.38
2022-11-28T11:35:28.330Z,101069.56
2022-11-28T11:37:56.217Z,101065.94
2022-11-28T11:40:26.414Z,101079.25
2022-11-28T11:42:55.194Z,101084.16
2022-11-28T11:45:30.053Z,101093.72
2022-11-28T11:47:57.536Z,101092.88
2022-11-28T11:50:25.927Z,101096.28
2022-11-28T11:53:03.875Z,101092.03
2022-11-28T11:55:32.652Z,101082.63
2022-11-28T11:58:05.444Z,101066.78
2022-11-28T12:00:38.730Z,101061.56
2022-11-28T12:03:10.994Z,101069.31
2022-11-28T12:06:12.251Z,101073.19
2022-11-28T12:08:35.342Z,101073.78
2022-11-28T12:11:10.189Z,101063.00
2022-11-28T12:13:37.613Z,101062.03
2022-11-28T12:16:09.535Z,101060.06
2022-11-28T12:18:46.028Z,101056.44
2022-11-28T12:21:14.435Z,101046.06
2022-11-28T12:23:49.384Z,101048.59
2022-11-28T12:26:19.938Z,101042.47
2022-11-28T12:28:54.060Z,101047.81
2022-11-28T12:31:25.143Z,101044.88
2022-11-28T12:33:58.223Z,101036.75
2022-11-28T12:36:28.016Z,101036.91
2022-11-28T12:39:13.969Z,101042.09
2022-11-28T12:41:51.908Z,101036.75
2022-11-28T12:44:22.819Z,101027.06
2022-11-28T12:46:55.385Z,101031.69
2022-11-28T12:49:24.827Z,101037.69
2022-11-28T12:51:58.349Z,101034.69
2022-11-28T12:54:45.669Z,101041.81
2022-11-28T12:57:16.276Z,101035.91
2022-11-28T12:59:46.634Z,101036.25
2022-11-28T13:02:26.590Z,101037.03
2022-11-28T13:05:05.991Z,101035.06
2022-11-28T13:07:38.123Z,101040.38
2022-11-28T13:10:09.878Z,101041.13
2022-11-28T13:12:45.681Z,101036.75
2022-11-28T13:15:14.792Z,101034.09
2022-11-28T13:17:45.320Z,101033.25
2022-11-28T13:20:18.387Z,101029.75
2022-11-28T13:22:53.095Z,101027.94
2022-11-28T13:25:22.879Z,101022.75
2022-11-28T13:27:53.933Z,101025.16
2022-11-28T13:30:22.921Z,101017.28
2022-11-28T13:32:53.546Z,101026.81
2022-11-28T13:35:20.966Z,101021.75
2022-11-28T13:40:41.177Z,101022.63
2022-11-28T13:43:13.481Z,101026.81
2022-11-28T13:45:42.190Z,101025.00
2022-11-28T13:51:36.869Z,101018.38
2022-11-28T13:54:34.151Z,101020.66
2022-11-28T13:57:06.281Z,101024.59
2022-11-28T13:59:34.776Z,101021.81
2022-11-28T14:02:02.836Z,101019.84
2022-11-28T14:04:30.893Z,101017.44
2022-11-28T14:07:02.790Z,101022.16
2022-11-28T14:09:34.805Z,101018.66
2022-11-28T14:12:07.987Z,101017.91
2022-11-28T14:14:47.402Z,101021.94
2022-11-28T14:17:23.952Z,101021.94
2022-11-28T14:20:01.833Z,101021.94
2022-11-28T14:22:40.009Z,101025.59
2022-11-28T14:25:10.470Z,101018.44
2022-11-28T14:27:40.613Z,101024.84
2022-11-28T14:30:18.363Z,101022.94
2022-11-28T14:32:45.876Z,101021.22
2022-11-28T14:35:16.575Z,101026.56
2022-11-28T14:37:55.468Z,101027.97
2022-11-28T14:41:06.087Z,101028.25
2022-11-28T14:43:35.379Z,101025.31
2022-11-28T14:46:29.289Z,101023.63
2022-11-28T14:49:18.733Z,101024.59
2022-11-28T14:55:21.962Z,101032.47
2022-11-28T14:57:55.117Z,101021.22
2022-11-28T15:00:24.460Z,101021.09
2022-11-28T15:02:58.485Z,101018.19
2022-11-28T15:05:31.531Z,101017.31
2022-11-28T15:08:13.055Z,101015.78
2022-11-28T15:10:44.292Z,101022.66
2022-11-28T15:13:22.023Z,101025.59
2022-11-28T15:15:51.886Z,101025.72
2022-11-28T15:18:19.382Z,101024.84
2022-11-28T15:20:48.833Z,101017.88
2022-11-28T15:23:26.010Z,101034.81
2022-11-28T15:25:55.888Z,101031.88
2022-11-28T15:28:23.820Z,101029.94
2022-11-28T15:30:52.232Z,101033.16
2022-11-28T15:33:20.132Z,101037.22
2022-11-28T15:35:56.905Z,101030.19
2022-11-28T15:38:24.628Z,101033.84
2022-11-28T15:40:52.614Z,101033.84
2022-11-28T15:43:21.439Z,101039.31
2022-11-28T15:45:49.582Z,101037.34
2022-11-28T15:48:27.753Z,101034.81
2022-11-28T15:50:55.198Z,101031.75
2022-11-28T15:53:22.737Z,101032.84
2022-11-28T15:56:08.061Z,101038.50
2022-11-28T15:58:36.994Z,101041.25
2022-11-28T16:01:06.605Z,101041.97
2022-11-28T16:03:36.079Z,101043.22
2022-11-28T16:06:03.977Z,101039.19
2022-11-28T16:08:34.789Z,101044.81
2022-11-28T16:11:03.973Z,101040.31
2022-11-28T16:13:32.130Z,101036.50
2022-11-28T16:16:01.408Z,101040.84
2022-11-28T16:18:29.115Z,101049.69
2022-11-28T16:20:56.585Z,101047.16
2022-11-28T16:23:28.263Z,101053.59
2022-11-28T16:26:03.172Z,101046.47
2022-11-28T16:28:32.050Z,101056.00
2022-11-28T16:31:00.786Z,101043.63
2022-11-28T16:33:38.498Z,101044.75
2022-11-28T16:36:10.339Z,101042.09
2022-11-28T16:38:37.768Z,101042.78
2022-11-28T16:41:05.184Z,101046.84
2022-11-28T16:43:35.641Z,101042.94
2022-11-28T16:46:06.295Z,101049.00
2022-11-28T16:48:35.000Z,101053.31
2022-11-28T16:51:28.130Z,101049.25
2022-11-28T16:53:55.758Z,101049.97
2022-11-28T16:56:24.807Z,101050.09
2022-11-28T16:58:52.747Z,101051.78
2022-11-28T17:01:22.064Z,101050.91
2022-11-28T17:03:50.679Z,101054.31
2022-11-28T17:06:20.503Z,101053.59
2022-11-28T17:08:47.971Z,101051.09
2022-11-28T17:11:15.644Z,101050.22
2022-11-28T17:13:43.070Z,101053.88
2022-11-28T17:16:15.616Z,101059.06
2022-11-28T17:18:44.697Z,101053.00
2022-11-28T17:21:12.532Z,101054.13
2022-11-28T17:23:40.781Z,101047.09
2022-11-28T17:26:08.222Z,101046.97
2022-11-28T17:28:35.628Z,101048.81
2022-11-28T17:31:03.045Z,101041.16
2022-11-28T17:33:30.453Z,101043.69
2022-11-28T17:35:59.390Z,101045.53
2022-11-28T17:38:26.836Z,101047.09
2022-11-28T17:40:54.492Z,101044.53
2022-11-28T17:43:22.858Z,101047.19
2022-11-28T17:45:51.545Z,101044.53
2022-11-28T17:48:19.579Z,101047.69
2022-11-28T17:50:47.686Z,101043.47
2022-11-28T17:53:18.085Z,101044.53
2022-11-28T17:55:47.072Z,101041.66
2022-11-28T17:58:16.805Z,101043.47
2022-11-28T18:00:44.625Z,101036.53
2022-11-28T18:03:12.111Z,101041.78
2022-11-28T18:05:39.791Z,101034.75
2022-11-28T18:08:07.389Z,101017.06
2022-11-28T18:10:37.422Z,101027.25
2022-11-28T18:13:05.051Z,101031.19
2022-11-28T18:15:34.818Z,101037.47
2022-11-28T18:18:02.237Z,101027.06
2022-11-28T18:20:29.732Z,101028.78
2022-11-28T18:22:57.358Z,101035.06
2022-11-28T18:25:24.882Z,101032.41
2022-11-28T18:27:53.788Z,101035.34
2022-11-28T18:30:21.605Z,101040.72
2022-11-28T18:32:49.021Z,101038.84
2022-11-28T18:35:16.900Z,101034.22
2022-11-28T18:37:44.547Z,101035.00
2022-11-28T18:40:13.084Z,101040.31
2022-11-28T18:42:41.840Z,101036.38
2022-11-28T18:45:11.812Z,101042.78
2022-11-28T18:47:39.280Z,101030.72
2022-11-28T18:50:09.040Z,101034.81
2022-11-28T18:52:36.711Z,101039.69
2022-11-28T18:55:04.781Z,101038.13
2022-11-28T18:57:34.469Z,101031.69
2022-11-28T19:00:02.213Z,101040.94
2022-11-28T19:02:31.188Z,101031.25
2022-11-28T19:04:58.739Z,101034.91
2022-11-28T19:07:27.029Z,101031.25
2022-11-28T19:09:54.522Z,101027.63
2022-11-28T19:12:22.412Z,101031.81
2022-11-28T19:14:49.822Z,101028.66
2022-11-28T19:17:18.790Z,101022.38
2022-11-28T19:19:48.033Z,101018.75
2022-11-28T19:22:15.450Z,101017.06
2022-11-28T19:24:42.887Z,101021.31
2022-11-28T19:27:14.255Z,101028.31
2022-11-28T19:29:43.778Z,101025.78
2022-11-28T19:32:12.513Z,101031.97
2022-11-28T19:34:39.922Z,101016.84
2022-11-28T19:37:08.646Z,101031.97
2022-11-28T19:39:36.546Z,101034.03
2022-11-28T19:42:04.044Z,101035.00
2022-11-28T19:44:31.852Z,101036.53
2022-11-28T19:46:59.260Z,101044.44
2022-11-28T19:49:29.180Z,101044.53
2022-11-28T19:51:56.614Z,101037.53
2022-11-28T19:54:25.438Z,101043.94
2022-11-28T19:56:55.230Z,101042.03
2022-11-28T19:59:22.667Z,101039.38
2022-11-28T20:01:50.260Z,101040.31
2022-11-28T20:04:17.912Z,101049.03
2022-11-28T20:06:45.332Z,101042.88
2022-11-28T20:09:12.979Z,101040.31
2022-11-28T20:11:44.105Z,101039.38
2022-11-28T20:14:12.917Z,101045.53
2022-11-28T20:16:41.496Z,101049.03
2022-11-28T20:19:10.563Z,101050.03
2022-11-28T20:21:38.123Z,101050.97
2022-11-28T20:24:07.460Z,101050.28
2022-11-28T20:26:37.638Z,101059.22
2022-11-28T20:29:06.356Z,101056.81
2022-11-28T20:31:35.874Z,101059.91
2022-11-28T20:34:04.588Z,101053.38
2022-11-28T20:36:32.392Z,101057.88
2022-11-28T20:38:59.829Z,101058.72
2022-11-28T20:41:27.743Z,101061.66
2022-11-28T20:43:55.156Z,101051.13
2022-11-28T20:46:25.124Z,101052.78
2022-11-28T20:48:52.529Z,101053.78
2022-11-28T20:51:20.922Z,101059.81
2022-11-28T20:53:48.596Z,101055.75
2022-11-28T20:56:16.666Z,101053.78
2022-11-28T20:58:44.102Z,101055.59
2022-11-28T21:01:14.260Z,101049.44
2022-11-28T21:03:42.990Z,101051.50
2022-11-28T21:06:10.493Z,101049.44
2022-11-28T21:08:37.930Z,101052.22
2022-11-28T21:11:06.464Z,101051.50
2022-11-28T21:13:33.922Z,101055.00
2022-11-28T21:16:05.208Z,101053.22
2022-11-28T21:18:32.777Z,101053.34
2022-11-28T21:21:07.425Z,101051.63
2022-11-28T21:23:34.849Z,101053.47
2022-11-28T21:26:04.817Z,101055.13
2022-11-28T21:28:32.229Z,101044.34
2022-11-28T21:30:59.630Z,101051.63
2022-11-28T21:33:27.098Z,101051.63
2022-11-28T21:35:54.531Z,101046.31
2022-11-28T21:38:23.234Z,101046.19
2022-11-28T21:40:54.123Z,101047.44
2022-11-28T21:43:21.564Z,101040.72
2022-11-28T21:45:49.105Z,101043.47
2022-11-28T21:48:17.056Z,101040.00
2022-11-28T21:50:47.405Z,101045.06
2022-11-28T21:53:16.793Z,101051.81
2022-11-28T21:55:45.780Z,101049.03
2022-11-28T21:58:13.888Z,101042.03
2022-11-28T22:00:55.034Z,101048.31
2022-11-28T22:03:25.165Z,101047.16
2022-11-28T22:05:53.457Z,101043.06
2022-11-28T22:08:21.844Z,101048.66
2022-11-28T22:10:50.559Z,101046.13
2022-11-28T22:13:18.115Z,101047.94
2022-11-28T22:15:45.647Z,101043.47
2022-11-28T22:18:13.207Z,101039.44
2022-11-28T22:20:43.591Z,101047.81
2022-11-28T22:23:12.645Z,101049.63
2022-11-28T22:25:41.851Z,101051.78
2022-11-28T22:28:10.658Z,101050.91
2022-11-28T22:30:38.810Z,101054.13
2022-11-28T22:33:06.432Z,101056.41
2022-11-28T22:35:35.477Z,101048.25
2022-11-28T22:38:03.774Z,101041.25
2022-11-28T22:40:31.245Z,101048.13
2022-11-28T22:42:59.772Z,101049.13
2022-11-28T22:45:28.642Z,101050.78
2022-11-28T22:47:56.249Z,101055.03
2022-11-28T22:50:23.756Z,101050.41
2022-11-28T22:52:51.208Z,101058.53
2022-11-28T22:55:18.680Z,101055.59
2022-11-28T22:57:46.266Z,101052.09
2022-11-28T23:00:15.410Z,101058.00
2022-11-28T23:02:44.637Z,101061.50
2022-11-28T23:05:12.198Z,101063.47
2022-11-28T23:07:39.656Z,101061.63
2022-11-28T23:10:08.763Z,101054.22
2022-11-28T23:12:36.211Z,101057.88
2022-11-28T23:15:03.685Z,101058.13
2022-11-28T23:17:31.234Z,101063.91
2022-11-28T23:19:59.957Z,101062.34
2022-11-28T23:22:27.444Z,101057.13
2022-11-28T23:24:55.208Z,101055.09
2022-11-28T23:27:22.957Z,101057.88
2022-11-28T23:29:51.357Z,101051.09
2022-11-28T23:32:18.805Z,101047.75
2022-11-28T23:34:47.587Z,101052.22
2022-11-28T23:37:16.283Z,101061.00
2022-11-28T23:39:43.723Z,101054.13
2022-11-28T23:42:11.167Z,101056.06
2022-11-28T23:44:38.576Z,101057.16
2022-11-28T23:47:06.525Z,101050.66
2022-11-28T23:49:33.936Z,101056.81
2022-11-28T23:52:01.332Z,101062.28
2022-11-28T23:54:30.036Z,101057.38
2022-11-28T23:56:57.449Z,101059.16
2022-11-28T23:59:24.842Z,101057.25
